createdAt,value
2018-06-21T00:01:01.737Z,22.00
2018-06-21T00:05:59.420Z,21.90
2018-06-21T00:08:28.321Z,21.90
2018-06-21T00:10:57.112Z,21.90
2018-06-21T00:13:26.009Z,21.90
2018-06-21T00:15:56.055Z,21.90
2018-06-21T00:18:24.936Z,21.80
2018-06-21T00:20:53.737Z,21.80
2018-06-21T00:23:22.827Z,21.70
2018-06-21T00:25:51.967Z,21.70
2018-06-21T00:28:20.707Z,21.70
2018-06-21T00:30:49.442Z,21.60
2018-06-21T00:33:18.181Z,21.60
2018-06-21T00:35:46.917Z,21.70
2018-06-21T00:38:16.353Z,21.70
2018-06-21T00:40:45.149Z,21.70
2018-06-21T00:43:14.301Z,21.70
2018-06-21T00:45:43.061Z,21.70
2018-06-21T00:48:11.777Z,21.60
2018-06-21T00:50:41.211Z,21.60
2018-06-21T00:53:09.968Z,21.50
2018-06-21T00:55:50.288Z,21.60
2018-06-21T00:58:19.032Z,21.60
2018-06-21T01:00:47.787Z,21.50
2018-06-21T01:08:20.461Z,21.40
2018-06-21T01:10:49.650Z,21.40
2018-06-21T01:13:18.731Z,21.30
2018-06-21T01:15:47.516Z,21.30
2018-06-21T01:18:16.366Z,21.30
2018-06-21T01:23:13.677Z,21.30
2018-06-21T01:25:42.695Z,21.20
2018-06-21T01:28:11.698Z,21.30
2018-06-21T01:30:40.515Z,21.20
2018-06-21T01:33:09.880Z,21.20
2018-06-21T01:35:38.767Z,21.20
2018-06-21T01:38:08.027Z,21.20
2018-06-21T01:40:36.829Z,21.20
2018-06-21T01:43:05.718Z,21.10
2018-06-21T01:45:34.838Z,21.00
2018-06-21T01:48:03.920Z,21.10
2018-06-21T01:50:32.678Z,21.00
2018-06-21T01:53:01.790Z,21.00
2018-06-21T01:55:30.528Z,21.00
2018-06-21T01:57:59.358Z,21.00
2018-06-21T02:00:28.118Z,21.00
2018-06-21T02:02:56.898Z,20.90
2018-06-21T02:05:25.685Z,20.90
2018-06-21T02:07:54.746Z,20.90
2018-06-21T02:10:23.580Z,20.80
2018-06-21T02:12:52.458Z,20.80
2018-06-21T02:15:21.278Z,20.80
2018-06-21T02:17:50.212Z,20.70
2018-06-21T02:20:19.555Z,20.60
2018-06-21T02:22:48.425Z,20.60
2018-06-21T02:25:17.311Z,20.60
2018-06-21T02:27:46.174Z,20.70
2018-06-21T02:30:15.377Z,20.70
2018-06-21T02:32:44.599Z,20.70
2018-06-21T02:35:13.320Z,20.80
2018-06-21T02:37:42.413Z,20.90
2018-06-21T02:40:11.135Z,20.80
2018-06-21T02:42:39.856Z,20.70
2018-06-21T02:45:08.604Z,20.80
2018-06-21T02:50:06.302Z,20.70
2018-06-21T02:52:35.564Z,20.70
2018-06-21T02:55:04.328Z,20.70
2018-06-21T02:57:33.438Z,20.70
2018-06-21T03:00:02.569Z,20.70
2018-06-21T03:02:31.479Z,20.80
2018-06-21T03:05:00.305Z,20.80
2018-06-21T03:07:29.173Z,20.90
2018-06-21T03:09:58.049Z,20.80
2018-06-21T03:12:26.940Z,20.90
2018-06-21T03:14:55.868Z,21.00
2018-06-21T03:17:25.543Z,21.30
2018-06-21T03:19:54.289Z,21.40
2018-06-21T03:22:23.174Z,21.40
2018-06-21T03:24:51.966Z,21.50
2018-06-21T03:27:21.058Z,21.60
2018-06-21T03:29:49.829Z,21.70
2018-06-21T03:32:18.609Z,21.80
2018-06-21T03:34:47.706Z,22.20
2018-06-21T03:37:16.465Z,23.10
2018-06-21T03:39:45.215Z,24.10
2018-06-21T03:42:13.967Z,24.80
2018-06-21T03:44:43.081Z,25.40
2018-06-21T03:47:11.831Z,25.80
2018-06-21T03:49:40.893Z,25.70
2018-06-21T03:52:09.835Z,25.00
2018-06-21T03:54:38.843Z,25.40
2018-06-21T03:57:07.789Z,25.80
2018-06-21T03:59:36.782Z,26.00
2018-06-21T04:02:06.419Z,26.50
2018-06-21T04:04:35.957Z,26.80
2018-06-21T04:07:05.370Z,27.40
2018-06-21T04:09:35.196Z,27.50
2018-06-21T04:12:05.317Z,27.60
2018-06-21T04:14:35.433Z,27.80
2018-06-21T04:17:05.145Z,27.80
2018-06-21T04:19:34.906Z,27.60
2018-06-21T04:22:04.274Z,27.10
2018-06-21T04:24:33.694Z,28.40
2018-06-21T04:27:03.326Z,29.40
2018-06-21T04:29:33.044Z,29.90
2018-06-21T04:32:02.335Z,30.40
2018-06-21T04:34:31.650Z,31.20
2018-06-21T04:37:00.945Z,32.60
2018-06-21T04:39:30.272Z,33.70
2018-06-21T04:41:59.892Z,33.60
2018-06-21T04:44:29.550Z,34.50
2018-06-21T04:46:58.852Z,35.10
2018-06-21T04:49:28.179Z,34.60
2018-06-21T04:51:57.510Z,34.90
2018-06-21T04:54:26.858Z,36.00
2018-06-21T04:56:56.531Z,36.70
2018-06-21T04:59:26.249Z,36.40
2018-06-21T05:01:56.251Z,35.70
2018-06-21T05:04:25.591Z,36.10
2018-06-21T05:06:54.955Z,37.80
2018-06-21T05:09:24.621Z,37.80
2018-06-21T05:11:54.299Z,38.80
2018-06-21T05:14:23.373Z,39.60
2018-06-21T05:16:53.179Z,37.40
2018-06-21T05:19:22.752Z,37.70
2018-06-21T05:21:52.206Z,39.00
2018-06-21T05:24:21.738Z,39.20
2018-06-21T05:26:51.305Z,37.60
2018-06-21T05:29:20.870Z,39.60
2018-06-21T05:31:51.201Z,40.00
2018-06-21T05:34:20.908Z,40.20
2018-06-21T05:36:50.510Z,41.00
2018-06-21T05:39:19.835Z,41.60
2018-06-21T05:41:50.231Z,39.60
2018-06-21T05:44:19.869Z,36.90
2018-06-21T05:46:50.134Z,35.80
2018-06-21T05:49:20.079Z,36.40
2018-06-21T05:51:49.544Z,37.40
2018-06-21T05:54:18.949Z,35.20
2018-06-21T05:56:48.454Z,37.70
2018-06-21T05:59:17.977Z,39.30
2018-06-21T06:01:47.336Z,38.40
2018-06-21T06:04:16.965Z,39.70
2018-06-21T06:06:46.280Z,39.50
2018-06-21T06:09:15.953Z,39.60
2018-06-21T06:11:45.280Z,37.80
2018-06-21T06:14:14.659Z,34.70
2018-06-21T06:16:44.388Z,32.60
2018-06-21T06:19:13.684Z,31.90
2018-06-21T06:21:43.092Z,32.30
2018-06-21T06:24:12.483Z,35.00
2018-06-21T06:26:42.330Z,32.50
2018-06-21T06:29:11.694Z,30.60
2018-06-21T06:31:41.160Z,29.70
2018-06-21T06:34:10.478Z,29.40
2018-06-21T06:36:39.863Z,29.20
2018-06-21T06:39:18.474Z,28.00
2018-06-21T06:41:49.637Z,27.10
2018-06-21T06:44:19.444Z,27.60
2018-06-21T06:46:48.770Z,27.50
2018-06-21T06:49:18.152Z,26.50
2018-06-21T06:51:47.448Z,26.60
2018-06-21T06:54:16.276Z,26.50
2018-06-21T06:56:45.378Z,26.40
2018-06-21T07:01:43.141Z,26.30
2018-06-21T07:04:12.856Z,26.50
2018-06-21T07:06:42.223Z,27.40
2018-06-21T07:09:11.478Z,27.10
2018-06-21T07:11:40.856Z,27.80
2018-06-21T07:14:10.395Z,26.80
2018-06-21T07:16:40.103Z,27.00
2018-06-21T07:19:09.643Z,30.90
2018-06-21T07:21:40.843Z,32.30
2018-06-21T07:24:10.378Z,30.30
2018-06-21T07:26:40.011Z,29.90
2018-06-21T07:29:10.389Z,30.00
2018-06-21T07:31:39.782Z,28.90
2018-06-21T07:34:09.695Z,27.80
2018-06-21T07:36:39.364Z,27.90
2018-06-21T07:39:10.209Z,28.30
2018-06-21T07:41:39.828Z,27.80
2018-06-21T07:44:09.294Z,28.10
2018-06-21T07:46:38.846Z,29.60
2018-06-21T07:49:08.862Z,29.90
2018-06-21T07:51:38.713Z,29.70
2018-06-21T07:54:08.302Z,30.50
2018-06-21T07:56:37.664Z,30.80
2018-06-21T07:59:07.420Z,32.00
2018-06-21T08:01:37.076Z,34.30
2018-06-21T08:04:06.440Z,34.70
2018-06-21T08:09:10.476Z,32.20
2018-06-21T08:11:40.118Z,30.70
2018-06-21T08:14:10.284Z,28.60
2018-06-21T08:16:44.092Z,27.30
2018-06-21T08:19:13.624Z,26.80
2018-06-21T08:21:43.154Z,27.50
2018-06-21T08:24:12.984Z,28.10
2018-06-21T08:26:43.127Z,28.20
2018-06-21T08:29:12.731Z,28.30
2018-06-21T08:31:43.312Z,28.40
2018-06-21T08:34:13.029Z,28.10
2018-06-21T08:36:42.729Z,28.60
2018-06-21T08:39:12.125Z,27.80
2018-06-21T08:41:41.815Z,28.20
2018-06-21T08:44:11.464Z,28.90
2018-06-21T08:46:41.127Z,28.90
2018-06-21T08:49:10.811Z,28.00
2018-06-21T08:51:40.201Z,27.90
2018-06-21T08:54:09.540Z,28.40
2018-06-21T08:56:39.221Z,28.20
2018-06-21T08:59:08.576Z,27.90
2018-06-21T09:01:37.888Z,28.10
2018-06-21T09:04:07.332Z,28.50
2018-06-21T09:06:36.658Z,28.90
2018-06-21T09:09:08.004Z,28.10
2018-06-21T09:11:37.737Z,29.00
2018-06-21T09:14:07.432Z,28.70
2018-06-21T09:16:36.832Z,28.90
2018-06-21T09:19:06.532Z,29.50
2018-06-21T09:21:36.165Z,29.70
2018-06-21T09:24:05.862Z,29.50
2018-06-21T09:26:35.419Z,28.00
2018-06-21T09:29:05.377Z,28.00
2018-06-21T09:34:03.760Z,28.50
2018-06-21T09:36:37.178Z,28.40
2018-06-21T09:39:14.326Z,29.00
2018-06-21T09:41:50.084Z,28.80
2018-06-21T09:44:25.573Z,28.20
2018-06-21T09:47:00.551Z,27.70
2018-06-21T09:49:31.406Z,27.90
2018-06-21T09:52:03.541Z,28.00
2018-06-21T09:54:33.352Z,28.10
2018-06-21T09:57:03.342Z,28.60
2018-06-21T09:59:32.934Z,28.10
2018-06-21T10:02:02.681Z,28.00
2018-06-21T10:04:33.046Z,28.10
2018-06-21T10:07:03.005Z,28.30
2018-06-21T10:09:32.707Z,28.00
2018-06-21T10:12:02.147Z,27.90
2018-06-21T10:14:31.199Z,28.10
2018-06-21T10:17:00.629Z,27.80
2018-06-21T10:19:30.140Z,27.70
2018-06-21T10:21:59.597Z,27.50
2018-06-21T10:24:28.504Z,27.70
2018-06-21T10:26:57.639Z,27.90
2018-06-21T10:29:26.774Z,27.90
2018-06-21T10:31:56.582Z,28.00
2018-06-21T10:34:25.407Z,28.10
2018-06-21T10:36:55.094Z,28.20
2018-06-21T10:39:24.432Z,28.30
2018-06-21T10:41:53.180Z,28.00
2018-06-21T10:44:21.973Z,27.20
2018-06-21T10:46:51.196Z,25.60
2018-06-21T10:49:19.939Z,24.60
2018-06-21T10:51:48.719Z,24.10
2018-06-21T10:54:17.856Z,24.00
2018-06-21T10:56:46.715Z,23.70
2018-06-21T10:59:15.740Z,23.70
2018-06-21T11:01:44.741Z,23.10
2018-06-21T11:04:14.145Z,22.90
2018-06-21T11:06:43.199Z,22.50
2018-06-21T11:09:12.529Z,22.40
2018-06-21T11:14:11.138Z,22.10
2018-06-21T11:16:39.996Z,22.10
2018-06-21T11:19:08.879Z,22.10
2018-06-21T11:21:37.654Z,22.10
2018-06-21T11:24:07.037Z,22.40
2018-06-21T11:26:35.795Z,21.90
2018-06-21T11:29:04.605Z,21.90
2018-06-21T11:31:33.354Z,21.90
2018-06-21T11:34:02.121Z,22.00
2018-06-21T11:36:31.251Z,22.20
2018-06-21T11:39:00.068Z,22.00
2018-06-21T11:41:29.190Z,22.00
2018-06-21T11:43:58.300Z,22.10
2018-06-21T11:46:27.466Z,22.20
2018-06-21T11:48:56.362Z,22.10
2018-06-21T11:51:25.262Z,22.20
2018-06-21T11:53:54.262Z,22.30
2018-06-21T11:56:23.501Z,22.00
2018-06-21T11:58:52.564Z,21.90
2018-06-21T12:01:21.792Z,22.20
2018-06-21T12:03:50.998Z,22.70
2018-06-21T12:06:19.896Z,23.00
2018-06-21T12:08:49.093Z,21.70
2018-06-21T12:11:18.173Z,21.40
2018-06-21T12:13:46.942Z,20.90
2018-06-21T12:16:15.714Z,20.10
2018-06-21T12:18:44.870Z,20.10
2018-06-21T12:21:13.826Z,20.40
2018-06-21T12:23:43.019Z,20.10
2018-06-21T12:26:11.911Z,20.10
2018-06-21T12:28:40.866Z,19.80
2018-06-21T12:31:09.659Z,19.50
2018-06-21T12:33:38.805Z,20.10
2018-06-21T12:36:07.563Z,20.10
2018-06-21T12:38:36.804Z,19.80
2018-06-21T12:41:05.964Z,19.90
2018-06-21T12:43:35.033Z,19.20
2018-06-21T12:46:04.095Z,19.70
2018-06-21T12:48:33.419Z,19.30
2018-06-21T12:51:02.451Z,19.50
2018-06-21T12:53:31.655Z,19.60
2018-06-21T12:56:00.601Z,19.50
2018-06-21T12:58:29.697Z,19.40
2018-06-21T13:00:59.377Z,19.10
2018-06-21T13:03:35.125Z,19.50
2018-06-21T13:06:04.507Z,19.50
2018-06-21T13:08:45.215Z,19.30
2018-06-21T13:11:27.971Z,19.10
2018-06-21T13:14:08.335Z,19.10
2018-06-21T13:16:37.373Z,19.30
2018-06-21T13:19:06.278Z,18.50
2018-06-21T13:21:35.308Z,18.90
2018-06-21T13:24:04.466Z,18.90
2018-06-21T13:26:33.450Z,19.20
2018-06-21T13:29:02.765Z,19.30
2018-06-21T13:31:32.042Z,19.80
2018-06-21T13:34:01.236Z,20.00
2018-06-21T13:36:30.441Z,20.00
2018-06-21T13:38:59.233Z,19.80
2018-06-21T13:41:28.010Z,19.70
2018-06-21T13:43:57.175Z,20.10
2018-06-21T13:46:26.345Z,20.40
2018-06-21T13:48:56.404Z,20.60
2018-06-21T13:51:25.510Z,20.70
2018-06-21T13:53:54.290Z,19.20
2018-06-21T13:56:23.158Z,19.00
2018-06-21T13:58:51.996Z,18.70
2018-06-21T14:01:20.822Z,18.80
2018-06-21T14:03:49.651Z,19.00
2018-06-21T14:06:18.553Z,19.10
2018-06-21T14:08:47.582Z,18.90
2018-06-21T14:11:16.507Z,18.60
2018-06-21T14:13:45.340Z,18.70
2018-06-21T14:16:14.750Z,18.20
2018-06-21T14:18:43.800Z,18.80
2018-06-21T14:21:13.241Z,18.90
2018-06-21T14:23:42.337Z,18.90
2018-06-21T14:26:11.539Z,18.40
2018-06-21T14:28:41.089Z,18.00
2018-06-21T14:31:09.927Z,18.20
2018-06-21T14:33:38.809Z,18.20
2018-06-21T14:36:07.930Z,18.30
2018-06-21T14:38:37.042Z,18.50
2018-06-21T14:41:05.867Z,18.50
2018-06-21T14:43:34.645Z,17.90
2018-06-21T14:46:03.507Z,18.70
2018-06-21T14:48:32.601Z,19.30
2018-06-21T14:51:01.703Z,18.90
2018-06-21T14:53:30.541Z,18.60
2018-06-21T14:56:00.016Z,18.70
2018-06-21T14:58:29.184Z,18.70
2018-06-21T15:00:58.281Z,18.40
2018-06-21T15:03:27.220Z,18.80
2018-06-21T15:05:56.452Z,18.70
2018-06-21T15:08:25.837Z,18.90
2018-06-21T15:10:54.762Z,19.10
2018-06-21T15:13:23.934Z,19.20
2018-06-21T15:15:53.246Z,19.20
2018-06-21T15:18:22.368Z,18.90
2018-06-21T15:20:51.435Z,18.80
2018-06-21T15:23:20.720Z,18.50
2018-06-21T15:25:50.241Z,18.90
2018-06-21T15:28:19.145Z,18.80
2018-06-21T15:30:48.342Z,19.20
2018-06-21T15:33:17.178Z,18.90
2018-06-21T15:35:46.621Z,19.20
2018-06-21T15:38:18.489Z,18.70
2018-06-21T15:40:47.362Z,19.10
2018-06-21T15:43:16.443Z,19.30
2018-06-21T15:45:45.245Z,19.70
2018-06-21T15:48:14.601Z,19.20
2018-06-21T15:50:43.420Z,19.40
2018-06-21T15:53:12.544Z,19.50
2018-06-21T15:55:41.295Z,19.60
2018-06-21T15:58:10.429Z,19.70
2018-06-21T16:00:39.772Z,19.10
2018-06-21T16:03:08.924Z,19.50
2018-06-21T16:05:38.083Z,19.40
2018-06-21T16:08:07.228Z,19.30
2018-06-21T16:10:36.178Z,19.20
2018-06-21T16:13:05.045Z,19.10
2018-06-21T16:15:34.318Z,19.00
2018-06-21T16:18:04.323Z,19.20
2018-06-21T16:20:33.754Z,19.40
2018-06-21T16:23:02.773Z,19.10
2018-06-21T16:25:31.788Z,19.30
2018-06-21T16:28:00.920Z,19.10
2018-06-21T16:30:29.875Z,19.10
2018-06-21T16:32:58.664Z,19.30
2018-06-21T16:35:28.153Z,19.10
2018-06-21T16:37:57.656Z,18.90
2018-06-21T16:40:26.770Z,18.80
2018-06-21T16:42:55.803Z,18.90
2018-06-21T16:45:25.016Z,19.00
2018-06-21T16:47:54.137Z,18.90
2018-06-21T16:50:22.927Z,19.20
2018-06-21T16:52:51.697Z,19.10
2018-06-21T16:55:20.565Z,19.30
2018-06-21T16:57:49.321Z,19.20
2018-06-21T17:00:18.165Z,18.90
2018-06-21T17:02:47.030Z,18.40
2018-06-21T17:05:16.294Z,18.60
2018-06-21T17:07:45.220Z,18.70
2018-06-21T17:10:14.092Z,18.90
2018-06-21T17:12:42.994Z,18.90
2018-06-21T17:15:12.357Z,19.30
2018-06-21T17:17:41.525Z,19.10
2018-06-21T17:20:10.506Z,18.50
2018-06-21T17:22:40.120Z,18.90
2018-06-21T17:25:09.314Z,18.50
2018-06-21T17:27:38.509Z,18.90
2018-06-21T17:30:07.527Z,19.30
2018-06-21T17:32:36.702Z,19.20
2018-06-21T17:35:05.768Z,18.80
2018-06-21T17:37:34.571Z,18.60
2018-06-21T17:40:03.389Z,18.40
2018-06-21T17:42:32.184Z,18.50
2018-06-21T17:45:00.971Z,18.50
2018-06-21T17:47:30.452Z,18.50
2018-06-21T17:49:59.326Z,18.70
2018-06-21T17:52:28.626Z,18.20
2018-06-21T17:54:57.460Z,18.30
2018-06-21T17:57:26.605Z,17.80
2018-06-21T17:59:55.815Z,17.90
2018-06-21T18:02:24.749Z,18.30
2018-06-21T18:04:53.814Z,18.60
2018-06-21T18:07:23.181Z,18.50
2018-06-21T18:09:52.171Z,18.50
2018-06-21T18:12:21.051Z,18.40
2018-06-21T18:14:50.398Z,18.60
2018-06-21T18:17:19.905Z,18.10
2018-06-21T18:19:49.093Z,18.30
2018-06-21T18:22:20.434Z,18.30
2018-06-21T18:24:51.019Z,18.40
2018-06-21T18:27:20.731Z,18.50
2018-06-21T18:29:50.018Z,18.50
2018-06-21T18:32:18.931Z,18.50
2018-06-21T18:34:48.306Z,17.80
2018-06-21T18:50:17.212Z,17.80
2018-06-21T18:52:46.085Z,18.00
2018-06-21T18:55:15.533Z,18.30
2018-06-21T18:57:44.421Z,17.90
2018-06-21T19:05:10.900Z,17.30
2018-06-21T19:07:41.325Z,17.20
2018-06-21T19:10:15.534Z,17.30
2018-06-21T19:12:44.406Z,17.30
2018-06-21T19:15:13.559Z,17.20
2018-06-21T19:17:42.719Z,17.20
2018-06-21T19:20:12.327Z,17.30
2018-06-21T19:22:41.296Z,17.10
2018-06-21T19:25:10.230Z,17.00
2018-06-21T19:27:39.311Z,17.10
2018-06-21T19:30:08.449Z,17.10
2018-06-21T19:32:37.471Z,17.10
2018-06-21T19:35:06.421Z,17.00
2018-06-21T19:37:35.672Z,17.50
2018-06-21T19:40:05.015Z,17.10
2018-06-21T19:42:34.388Z,17.30
2018-06-21T19:45:03.642Z,17.20
2018-06-21T19:47:32.692Z,16.90
2018-06-21T19:50:01.547Z,17.00
2018-06-21T19:52:30.482Z,17.30
2018-06-21T19:54:59.411Z,17.40
2018-06-21T19:57:28.349Z,17.10
2018-06-21T19:59:57.563Z,16.70
2018-06-21T20:02:31.372Z,16.90
2018-06-21T20:05:00.568Z,16.80
2018-06-21T20:07:29.414Z,16.70
2018-06-21T20:09:58.313Z,16.40
2018-06-21T20:12:27.163Z,16.80
2018-06-21T20:14:56.127Z,16.40
2018-06-21T20:17:25.421Z,16.20
2018-06-21T20:19:59.666Z,15.90
2018-06-21T20:22:28.593Z,16.70
2018-06-21T20:24:57.515Z,16.30
2018-06-21T20:27:26.413Z,16.50
2018-06-21T20:29:55.289Z,16.30
2018-06-21T20:32:24.113Z,16.10
2018-06-21T20:34:53.386Z,16.10
2018-06-21T20:37:22.367Z,16.20
2018-06-21T20:39:51.569Z,16.50
2018-06-21T20:42:20.541Z,16.00
2018-06-21T20:44:49.451Z,16.20
2018-06-21T20:47:18.380Z,16.30
2018-06-21T20:49:47.334Z,16.20
2018-06-21T20:52:21.858Z,16.30
2018-06-21T20:54:50.661Z,16.80
2018-06-21T20:57:19.656Z,16.30
2018-06-21T20:59:48.550Z,16.20
2018-06-21T21:02:17.495Z,16.80
2018-06-21T21:05:13.880Z,16.10
2018-06-21T21:07:43.490Z,16.30
2018-06-21T21:10:14.149Z,16.20
2018-06-21T21:12:43.379Z,16.30
2018-06-21T21:17:41.909Z,16.30
2018-06-21T21:20:10.911Z,16.00
2018-06-21T21:22:40.568Z,16.10
2018-06-21T21:25:09.351Z,16.30
2018-06-21T21:27:38.277Z,16.30
2018-06-21T21:30:08.127Z,15.80
2018-06-21T21:32:36.897Z,15.80
2018-06-21T21:35:06.065Z,16.10
2018-06-21T21:37:35.216Z,16.20
2018-06-21T21:40:06.256Z,16.10
2018-06-21T21:42:36.354Z,16.00
2018-06-21T21:45:05.414Z,15.50
2018-06-21T21:47:34.258Z,16.10
2018-06-21T21:50:03.050Z,15.90
2018-06-21T21:52:31.844Z,16.20
2018-06-21T21:55:00.874Z,16.20
2018-06-21T21:57:32.652Z,15.80
2018-06-21T22:00:02.137Z,15.90
2018-06-21T22:02:30.985Z,16.00
2018-06-21T22:04:59.797Z,15.70
2018-06-21T22:07:28.958Z,15.50
2018-06-21T22:09:58.161Z,16.00
2018-06-21T22:12:27.056Z,16.00
2018-06-21T22:14:55.903Z,16.00
2018-06-21T22:17:24.777Z,15.50
2018-06-21T22:19:53.665Z,15.70
2018-06-21T22:22:22.427Z,15.40
2018-06-21T22:24:51.228Z,15.30
2018-06-21T22:29:48.498Z,15.40
2018-06-21T22:32:17.706Z,15.30
2018-06-21T22:34:46.832Z,15.00
2018-06-21T22:37:15.636Z,15.20
2018-06-21T22:39:44.441Z,15.50
2018-06-21T22:42:13.554Z,15.30
2018-06-21T22:44:42.343Z,15.40
2018-06-21T22:47:11.294Z,15.70
2018-06-21T22:49:40.134Z,14.90
2018-06-21T22:52:08.926Z,15.30
2018-06-21T22:54:37.788Z,15.10
2018-06-21T22:57:06.624Z,16.00
2018-06-21T22:59:35.547Z,15.80
2018-06-21T23:02:04.767Z,15.00
2018-06-21T23:07:02.059Z,15.40
2018-06-21T23:09:31.141Z,15.40
2018-06-21T23:11:59.999Z,15.60
2018-06-21T23:14:28.778Z,15.30
2018-06-21T23:16:58.382Z,15.00
2018-06-21T23:19:30.620Z,15.50
2018-06-21T23:21:59.990Z,15.40
2018-06-21T23:24:29.086Z,15.50
2018-06-21T23:26:58.522Z,15.00
2018-06-21T23:29:27.584Z,14.90
2018-06-21T23:31:56.336Z,15.00
2018-06-21T23:34:25.099Z,15.00
2018-06-21T23:36:53.900Z,15.30
2018-06-21T23:39:23.058Z,15.00
2018-06-21T23:41:51.800Z,14.60
2018-06-21T23:44:20.924Z,14.90
2018-06-21T23:46:49.734Z,14.60
2018-06-21T23:49:18.913Z,14.50
2018-06-21T23:51:48.196Z,14.60
2018-06-21T23:54:17.078Z,14.70
2018-06-21T23:56:46.345Z,14.80
2018-06-21T23:59:15.573Z,14.60
